Time;durP1;ratioP1;P1;durP2;ratioP2;P2;SDS_P1;SDS_P2;PMS_P1;PMS_P2;Temp;Humidity;BMP_temperature;BMP_pressure;BME280_temperature;BME280_humidity;BME280_pressure;Samples;Min_cycle;Max_cycle;Signal;HPM_P1;HPM_P2
2022/04/30 00:00:06;;;;;;;3.15;2.20;;;17.20;53.90;;;;;;5091346;28;20816;-72
2022/04/30 00:02:31;;;;;;;2.22;2.00;;;17.20;53.90;;;;;;5092109;28;20699;-74
2022/04/30 00:04:57;;;;;;;2.33;1.95;;;17.20;53.90;;;;;;5092183;28;20178;-73
2022/04/30 00:07:22;;;;;;;2.03;1.90;;;17.20;53.90;;;;;;5091391;28;20181;-74
2022/04/30 00:09:48;;;;;;;3.47;2.10;;;17.20;53.90;;;;;;5091567;28;20220;-75
2022/04/30 00:12:15;;;;;;;2.38;2.22;;;17.20;53.90;;;;;;5091963;28;20186;-75
2022/04/30 00:14:40;;;;;;;1.88;1.77;;;17.10;53.90;;;;;;5091001;28;20252;-75
2022/04/30 00:17:06;;;;;;;2.00;1.80;;;17.20;53.90;;;;;;5092446;28;20173;-75
2022/04/30 00:19:31;;;;;;;1.90;1.80;;;17.10;53.90;;;;;;5092034;28;20165;-76
2022/04/30 00:21:57;;;;;;;2.47;2.22;;;17.10;53.80;;;;;;5090916;28;20213;-75
2022/04/30 00:24:23;;;;;;;2.13;1.92;;;17.10;53.80;;;;;;5091630;28;20519;-76
2022/04/30 00:26:49;;;;;;;2.05;1.95;;;17.10;53.90;;;;;;5091494;28;20645;-76
2022/04/30 00:29:14;;;;;;;2.00;1.90;;;17.10;53.90;;;;;;5091286;28;20166;-76
2022/04/30 00:31:40;;;;;;;1.80;1.70;;;17.10;53.90;;;;;;5091761;28;20319;-76
2022/04/30 00:34:06;;;;;;;1.83;1.73;;;17.10;53.90;;;;;;5091888;28;20251;-72
2022/04/30 00:36:31;;;;;;;4.43;2.35;;;17.10;53.90;;;;;;5091059;28;20639;-74
2022/04/30 00:38:57;;;;;;;1.80;1.70;;;17.10;53.90;;;;;;5091333;28;20527;-74
2022/04/30 00:41:23;;;;;;;1.90;1.80;;;17.10;53.80;;;;;;5091626;28;20551;-74
2022/04/30 00:43:50;;;;;;;1.85;1.75;;;17.10;53.80;;;;;;5090525;28;20166;-74
2022/04/30 00:46:16;;;;;;;2.10;1.90;;;17.10;53.80;;;;;;5091788;28;20177;-73
2022/04/30 00:48:43;;;;;;;1.98;1.75;;;17.10;53.80;;;;;;5091523;28;20178;-75
2022/04/30 00:51:10;;;;;;;2.25;1.88;;;17.10;53.80;;;;;;5090978;28;20180;-74
2022/04/30 00:53:39;;;;;;;2.55;1.73;;;17.00;53.80;;;;;;5091422;28;20204;-75
2022/04/30 00:56:06;;;;;;;1.95;1.80;;;17.00;53.80;;;;;;5091474;28;20551;-74
2022/04/30 00:58:32;;;;;;;2.45;1.58;;;17.00;53.80;;;;;;5089358;28;20221;-74
2022/04/30 01:00:59;;;;;;;1.67;1.58;;;17.00;53.80;;;;;;5089880;28;20504;-74
2022/04/30 01:03:25;;;;;;;1.77;1.67;;;17.00;53.80;;;;;;5089562;28;20181;-73
2022/04/30 01:05:51;;;;;;;1.75;1.60;;;17.00;53.80;;;;;;5089956;28;20243;-74
2022/04/30 01:08:17;;;;;;;2.75;1.92;;;17.00;53.80;;;;;;5091422;28;20178;-75
2022/04/30 01:10:42;;;;;;;1.73;1.63;;;17.00;53.80;;;;;;5088762;28;20185;-75
2022/04/30 01:13:08;;;;;;;3.50;1.80;;;17.00;53.80;;;;;;5091499;28;20209;-75
2022/04/30 01:15:34;;;;;;;2.10;1.80;;;17.00;53.80;;;;;;5090134;28;20174;-75
2022/04/30 01:18:00;;;;;;;1.92;1.73;;;17.00;53.80;;;;;;5089600;28;20219;-75
2022/04/30 01:20:26;;;;;;;2.45;1.80;;;17.00;53.80;;;;;;5090165;28;20170;-75
2022/04/30 01:23:02;;;;;;;2.00;1.85;;;17.00;53.80;;;;;;5091668;28;20218;-75
2022/04/30 01:25:31;;;;;;;1.98;1.80;;;16.90;53.70;;;;;;5094380;28;20541;-75
2022/04/30 01:28:00;;;;;;;1.85;1.75;;;16.90;53.80;;;;;;5095088;28;20170;-75
2022/04/30 01:30:26;;;;;;;2.70;1.83;;;17.00;53.90;;;;;;5095151;28;20185;-75
2022/04/30 01:38:20;;;;;;;1.80;1.70;;;16.90;53.80;;;;;;5094902;28;20200;-72
2022/04/30 01:40:46;;;;;;;1.92;1.70;;;16.90;53.80;;;;;;5093996;28;20178;-73
2022/04/30 01:43:12;;;;;;;2.13;1.92;;;16.90;53.70;;;;;;5094915;28;20221;-74
2022/04/30 01:45:37;;;;;;;1.80;1.70;;;16.90;53.80;;;;;;5092549;28;20173;-74
2022/04/30 01:48:04;;;;;;;2.08;1.70;;;16.90;53.80;;;;;;5094726;28;20506;-73
2022/04/30 01:50:29;;;;;;;2.20;2.00;;;16.90;53.80;;;;;;5094450;28;20238;-74
2022/04/30 01:52:55;;;;;;;2.42;2.22;;;16.90;53.80;;;;;;5093640;28;20946;-74
2022/04/30 01:55:20;;;;;;;2.05;1.70;;;16.90;53.80;;;;;;5094660;28;20185;-74
2022/04/30 01:57:46;;;;;;;2.92;1.70;;;16.80;53.80;;;;;;5094130;28;20259;-74
2022/04/30 02:00:14;;;;;;;2.65;1.85;;;16.90;53.80;;;;;;5093945;28;20170;-73
2022/04/30 02:02:40;;;;;;;1.90;1.80;;;16.90;53.80;;;;;;5093882;28;20209;-74
2022/04/30 02:05:09;;;;;;;1.73;1.63;;;16.80;53.80;;;;;;5094305;28;20185;-74
2022/04/30 02:07:40;;;;;;;1.80;1.70;;;16.80;53.80;;;;;;5093448;28;20698;-75
2022/04/30 02:10:09;;;;;;;2.08;1.88;;;16.90;53.80;;;;;;5093151;28;20178;-75
2022/04/30 02:12:34;;;;;;;2.00;1.90;;;16.80;53.80;;;;;;5092819;28;20185;-75
2022/04/30 02:15:00;;;;;;;2.50;2.30;;;16.80;54.40;;;;;;5091838;28;20645;-75
2022/04/30 02:17:28;;;;;;;2.55;1.90;;;16.80;53.80;;;;;;5093895;28;20189;-74
2022/04/30 02:22:43;;;;;;;2.25;2.05;;;16.80;53.80;;;;;;5092988;28;20248;-75
2022/04/30 02:25:09;;;;;;;2.90;2.05;;;16.80;53.80;;;;;;5092595;28;20190;-75
2022/04/30 02:27:38;;;;;;;2.47;1.98;;;16.80;53.80;;;;;;5093804;28;20185;-75
2022/04/30 02:30:08;;;;;;;1.95;1.85;;;16.80;53.80;;;;;;5093172;28;20735;-75
2022/04/30 02:32:53;;;;;;;2.05;1.95;;;16.80;53.80;;;;;;5094015;28;20262;-75
2022/04/30 02:35:23;;;;;;;2.28;2.00;;;16.80;53.80;;;;;;5092027;28;20193;-73
2022/04/30 02:37:52;;;;;;;1.42;1.33;;;16.80;53.80;;;;;;5093404;28;20198;-73
2022/04/30 02:40:18;;;;;;;2.35;2.15;;;16.80;53.80;;;;;;5093558;28;20205;-73
2022/04/30 02:42:44;;;;;;;1.92;1.75;;;16.70;53.80;;;;;;5092613;28;20205;-74
2022/04/30 02:45:13;;;;;;;1.92;1.83;;;16.80;53.80;;;;;;5093729;28;20182;-73
2022/04/30 02:47:39;;;;;;;1.95;1.85;;;16.70;53.80;;;;;;5093219;28;20188;-74
2022/04/30 02:50:09;;;;;;;2.28;2.08;;;16.70;53.80;;;;;;5092854;28;20177;-73
2022/04/30 02:52:36;;;;;;;2.25;2.15;;;16.70;53.80;;;;;;5093320;28;20252;-75
2022/04/30 02:55:01;;;;;;;1.95;1.85;;;16.70;53.80;;;;;;5093443;28;20205;-74
2022/04/30 03:00:28;;;;;;;3.30;1.85;;;16.70;53.80;;;;;;5093521;28;20223;-73
2022/04/30 03:02:55;;;;;;;2.30;2.10;;;16.70;53.80;;;;;;5092512;28;20249;-73
2022/04/30 03:05:21;;;;;;;2.67;2.13;;;16.70;53.80;;;;;;5093131;28;20528;-74
2022/04/30 03:07:47;;;;;;;2.28;2.08;;;16.70;53.80;;;;;;5092717;28;20169;-74
2022/04/30 03:10:13;;;;;;;2.50;2.28;;;16.70;53.80;;;;;;5092428;28;20247;-75
2022/04/30 03:12:38;;;;;;;2.75;2.00;;;16.70;54.40;;;;;;5092752;28;20277;-75
2022/04/30 03:15:04;;;;;;;2.20;2.00;;;16.60;53.70;;;;;;5093027;28;20174;-74
2022/04/30 03:22:58;;;;;;;2.00;1.90;;;16.60;53.70;;;;;;5092404;28;20262;-74
2022/04/30 03:25:23;;;;;;;1.92;1.83;;;16.70;53.80;;;;;;5092031;28;20177;-74
2022/04/30 03:27:51;;;;;;;3.53;2.03;;;16.70;53.80;;;;;;5092423;28;20705;-75
2022/04/30 03:30:17;;;;;;;2.30;2.10;;;16.60;53.70;;;;;;5092664;28;20260;-74
2022/04/30 03:32:42;;;;;;;2.88;2.08;;;16.60;53.80;;;;;;5091848;28;20665;-75
2022/04/30 03:35:12;;;;;;;3.05;2.17;;;16.60;53.80;;;;;;5092447;28;20170;-73
2022/04/30 03:37:37;;;;;;;2.42;2.22;;;16.60;53.80;;;;;;5092284;28;20201;-75
2022/04/30 03:40:04;;;;;;;2.05;1.85;;;16.60;53.80;;;;;;5091729;28;20514;-74
2022/04/30 03:42:30;;;;;;;2.58;2.38;;;16.60;53.80;;;;;;5092316;28;20319;-74
2022/04/30 03:44:56;;;;;;;2.35;2.25;;;16.60;53.80;;;;;;5091824;28;20192;-75
2022/04/30 03:47:22;;;;;;;4.18;2.50;;;16.60;53.80;;;;;;5091706;28;20577;-74
2022/04/30 03:49:47;;;;;;;2.20;2.10;;;16.60;53.80;;;;;;5092108;28;20208;-74
2022/04/30 03:52:12;;;;;;;2.45;2.10;;;16.60;53.70;;;;;;5091575;28;20173;-74
2022/04/30 03:54:39;;;;;;;2.17;1.98;;;16.50;53.80;;;;;;5091732;28;20578;-74
2022/04/30 03:57:05;;;;;;;2.60;2.40;;;16.60;53.80;;;;;;5092221;28;20216;-75
2022/04/30 03:59:31;;;;;;;3.13;2.33;;;16.60;53.90;;;;;;5091157;28;20257;-74
2022/04/30 04:01:56;;;;;;;2.10;2.00;;;16.50;53.70;;;;;;5091953;28;20233;-74
2022/04/30 04:04:22;;;;;;;1.85;1.75;;;16.50;53.80;;;;;;5092128;28;20173;-75
2022/04/30 04:06:48;;;;;;;2.38;2.17;;;16.50;53.80;;;;;;5090895;28;20678;-75
2022/04/30 04:09:13;;;;;;;2.60;2.40;;;16.50;53.80;;;;;;5092102;28;20227;-75
2022/04/30 04:11:39;;;;;;;2.30;2.10;;;16.50;53.80;;;;;;5091660;28;20197;-76
2022/04/30 04:19:32;;;;;;;2.60;2.40;;;16.50;53.70;;;;;;5091888;28;20599;-76
2022/04/30 04:21:58;;;;;;;4.03;2.08;;;16.50;53.80;;;;;;5090613;28;20300;-75
2022/04/30 04:27:08;;;;;;;2.42;2.20;;;16.50;53.80;;;;;;5091790;28;20679;-74
2022/04/30 04:29:33;;;;;;;2.22;2.08;;;16.50;53.80;;;;;;5091198;28;20173;-75
2022/04/30 04:31:59;;;;;;;2.58;2.25;;;16.50;54.40;;;;;;5091397;28;20169;-75
2022/04/30 04:34:24;;;;;;;3.05;2.30;;;16.50;53.80;;;;;;5091142;28;20204;-73
2022/04/30 04:36:50;;;;;;;2.42;2.22;;;16.50;53.80;;;;;;5091435;28;20173;-75
2022/04/30 04:39:16;;;;;;;2.72;2.08;;;16.50;53.80;;;;;;5091498;28;20174;-74
2022/04/30 04:41:42;;;;;;;2.88;2.67;;;16.50;53.80;;;;;;5090544;28;20324;-76
2022/04/30 04:44:08;;;;;;;2.72;2.20;;;16.50;53.80;;;;;;5091890;28;20173;-74
2022/04/30 04:46:33;;;;;;;2.70;2.50;;;16.50;53.70;;;;;;5091741;28;20178;-74
2022/04/30 04:48:59;;;;;;;2.65;2.45;;;16.50;53.80;;;;;;5089327;28;20226;-75
2022/04/30 04:51:24;;;;;;;2.95;2.40;;;16.50;53.70;;;;;;5090287;28;20182;-75
2022/04/30 04:53:50;;;;;;;3.63;2.30;;;16.50;53.80;;;;;;5089888;28;20180;-76
2022/04/30 04:56:15;;;;;;;2.17;2.08;;;16.50;53.70;;;;;;5091048;28;20174;-76
2022/04/30 04:58:41;;;;;;;2.60;2.40;;;16.50;53.70;;;;;;5094887;28;20601;-74
2022/04/30 05:01:06;;;;;;;2.78;2.58;;;16.50;53.70;;;;;;5095517;28;20173;-75
2022/04/30 05:03:32;;;;;;;2.85;2.60;;;16.50;53.80;;;;;;5095116;28;20675;-73
2022/04/30 05:05:57;;;;;;;2.40;2.20;;;16.50;53.70;;;;;;5095123;28;20542;-74
2022/04/30 05:08:23;;;;;;;2.40;2.20;;;16.50;53.70;;;;;;5095470;28;20266;-74
2022/04/30 05:10:49;;;;;;;2.17;2.05;;;16.50;53.70;;;;;;5094425;28;20201;-76
2022/04/30 05:13:14;;;;;;;2.22;2.13;;;16.50;53.70;;;;;;5095420;28;20173;-75
2022/04/30 05:15:40;;;;;;;2.40;2.20;;;16.50;53.70;;;;;;5094929;28;20616;-75
2022/04/30 05:18:07;;;;;;;2.08;1.98;;;16.50;53.70;;;;;;5094578;28;20252;-75
2022/04/30 05:20:33;;;;;;;2.72;2.45;;;16.50;53.70;;;;;;5095025;28;20194;-74
2022/04/30 05:22:58;;;;;;;2.10;2.00;;;16.50;53.70;;;;;;5094906;28;20209;-75
2022/04/30 05:25:24;;;;;;;2.40;2.25;;;16.50;53.70;;;;;;5094321;28;20696;-76
2022/04/30 05:27:50;;;;;;;2.63;2.42;;;16.50;53.70;;;;;;5095177;28;20257;-74
2022/04/30 05:30:15;;;;;;;3.72;2.45;;;16.50;53.60;;;;;;5095424;28;20180;-75
2022/04/30 05:32:41;;;;;;;2.33;2.17;;;16.50;53.70;;;;;;5094268;28;20686;-75
2022/04/30 05:35:07;;;;;;;2.58;2.38;;;16.50;53.70;;;;;;5095055;28;20170;-73
2022/04/30 05:37:32;;;;;;;3.03;2.53;;;16.50;53.70;;;;;;5095039;28;20190;-75
2022/04/30 05:39:58;;;;;;;2.50;2.30;;;16.50;53.70;;;;;;5094193;28;20173;-73
2022/04/30 05:42:24;;;;;;;2.38;2.22;;;16.50;53.60;;;;;;5094880;28;20217;-74
2022/04/30 05:44:49;;;;;;;2.20;2.05;;;16.50;53.60;;;;;;5093000;28;20170;-74
2022/04/30 05:47:15;;;;;;;2.50;2.30;;;16.50;53.60;;;;;;5094878;28;20247;-74
2022/04/30 05:49:40;;;;;;;2.45;2.28;;;16.50;53.60;;;;;;5094556;28;20585;-75
2022/04/30 05:52:06;;;;;;;2.53;2.33;;;16.50;53.60;;;;;;5094299;28;20628;-74
2022/04/30 05:54:31;;;;;;;2.50;2.30;;;16.50;53.60;;;;;;5094670;28;20209;-75
2022/04/30 05:56:57;;;;;;;2.92;2.63;;;16.50;53.60;;;;;;5094676;28;20174;-75
2022/04/30 05:59:22;;;;;;;2.38;2.17;;;16.50;53.60;;;;;;5093702;28;20241;-75
2022/04/30 06:01:48;;;;;;;3.00;2.55;;;16.60;53.60;;;;;;5094299;28;20601;-74
2022/04/30 06:04:13;;;;;;;2.30;2.00;;;16.60;53.50;;;;;;5094507;28;20200;-73
2022/04/30 06:06:39;;;;;;;2.38;2.17;;;16.60;53.60;;;;;;5093334;28;20668;-74
2022/04/30 06:09:04;;;;;;;2.25;2.03;;;16.70;53.60;;;;;;5094008;28;20169;-75
2022/04/30 06:11:30;;;;;;;2.40;2.13;;;16.70;53.60;;;;;;5094394;28;20170;-76
2022/04/30 06:13:55;;;;;;;2.10;2.00;;;16.70;53.70;;;;;;5093354;28;20215;-75
2022/04/30 06:16:21;;;;;;;2.35;2.20;;;16.70;53.60;;;;;;5094129;28;20174;-75
2022/04/30 06:18:46;;;;;;;2.13;1.95;;;16.80;53.60;;;;;;5093989;28;20640;-75
2022/04/30 06:21:12;;;;;;;3.08;2.10;;;16.80;53.60;;;;;;5093518;28;20185;-74
2022/04/30 06:23:37;;;;;;;2.47;2.10;;;16.80;53.50;;;;;;5094317;28;20261;-75
2022/04/30 06:26:03;;;;;;;2.17;2.08;;;16.80;53.60;;;;;;5094275;28;20192;-76
2022/04/30 06:28:28;;;;;;;2.50;2.30;;;16.80;53.50;;;;;;5093749;28;20580;-75
2022/04/30 06:30:57;;;;;;;2.03;1.85;;;16.80;53.50;;;;;;5094146;28;20254;-75
2022/04/30 06:33:22;;;;;;;2.28;2.13;;;16.80;53.60;;;;;;5094375;28;20223;-74
2022/04/30 06:35:48;;;;;;;1.90;1.80;;;16.80;53.60;;;;;;5093086;28;20585;-73
2022/04/30 06:38:13;;;;;;;2.35;2.15;;;16.80;53.30;;;;;;5094003;28;20174;-74
2022/04/30 06:40:39;;;;;;;2.03;1.92;;;16.80;53.50;;;;;;5094047;28;20247;-73
2022/04/30 06:43:04;;;;;;;2.28;2.08;;;16.80;53.40;;;;;;5093272;28;20217;-73
2022/04/30 06:45:30;;;;;;;1.95;1.85;;;16.90;53.40;;;;;;5094013;28;20639;-73
2022/04/30 06:47:55;;;;;;;2.20;2.10;;;16.90;53.20;;;;;;5093604;28;20174;-74
2022/04/30 06:50:21;;;;;;;1.95;1.85;;;17.00;53.20;;;;;;5093191;28;20637;-73
2022/04/30 06:58:15;;;;;;;1.98;1.85;;;17.40;52.90;;;;;;5093519;28;20244;-73
2022/04/30 07:03:27;;;;;;;2.63;2.10;;;17.60;52.80;;;;;;5092745;28;20258;-73
2022/04/30 07:06:14;;;;;;;2.15;1.80;;;17.70;52.60;;;;;;5093212;28;20177;-72
2022/04/30 07:08:40;;;;;;;2.05;1.80;;;17.90;52.50;;;;;;5093340;28;20203;-70
2022/04/30 07:11:05;;;;;;;5.68;2.45;;;18.10;52.30;;;;;;5092501;28;20162;-69
2022/04/30 07:13:31;;;;;;;3.55;2.20;;;18.20;52.20;;;;;;5093114;28;20197;-69
2022/04/30 07:15:59;;;;;;;5.45;2.35;;;18.30;52.20;;;;;;5093077;28;20293;-71
2022/04/30 07:18:25;;;;;;;4.60;2.33;;;18.50;52.10;;;;;;5092465;28;20181;-73
2022/04/30 07:20:53;;;;;;;3.90;2.10;;;18.50;52.00;;;;;;5092285;28;20199;-72
2022/04/30 07:23:19;;;;;;;4.75;2.20;;;18.60;51.90;;;;;;5092175;28;20222;-70
2022/04/30 07:25:44;;;;;;;3.78;2.10;;;18.60;51.80;;;;;;5092647;28;20170;-70
2022/04/30 07:28:09;;;;;;;2.38;2.13;;;18.60;51.90;;;;;;5093134;28;20184;-70
2022/04/30 07:30:37;;;;;;;3.47;2.13;;;18.50;52.10;;;;;;5092062;28;20166;-70
2022/04/30 07:33:03;;;;;;;4.40;2.72;;;18.50;52.50;;;;;;5093054;28;20189;-72
2022/04/30 07:35:28;;;;;;;7.75;2.83;;;18.40;52.60;;;;;;5093100;28;20173;-72
2022/04/30 07:37:54;;;;;;;7.00;2.55;;;18.40;52.60;;;;;;5091881;28;20174;-67
2022/04/30 07:40:19;;;;;;;2.55;2.05;;;18.30;52.80;;;;;;5092698;28;20293;-69
2022/04/30 07:42:45;;;;;;;4.13;2.88;;;18.20;52.90;;;;;;5092622;28;20290;-68
2022/04/30 07:45:10;;;;;;;4.90;2.55;;;18.20;53.00;;;;;;5092040;28;20169;-68
2022/04/30 07:47:36;;;;;;;3.40;2.17;;;18.20;53.10;;;;;;5092181;28;20170;-68
2022/04/30 07:50:02;;;;;;;4.45;2.45;;;18.20;53.20;;;;;;5092478;28;20628;-68
2022/04/30 07:52:28;;;;;;;4.82;1.90;;;18.10;53.20;;;;;;5091819;28;20177;-67
2022/04/30 07:54:54;;;;;;;6.35;2.10;;;18.10;53.90;;;;;;5092056;28;20252;-68
2022/04/30 07:57:20;;;;;;;6.20;1.90;;;18.10;53.20;;;;;;5092063;28;20251;-68
2022/04/30 07:59:46;;;;;;;2.88;1.70;;;18.10;53.20;;;;;;5091472;28;20190;-69
2022/04/30 08:02:11;;;;;;;4.88;1.90;;;18.10;53.30;;;;;;5092335;28;20249;-70
2022/04/30 08:04:37;;;;;;;5.07;2.33;;;18.10;53.20;;;;;;5092331;28;20625;-70
2022/04/30 08:07:02;;;;;;;5.88;2.20;;;18.10;53.20;;;;;;5091606;28;20620;-68
2022/04/30 08:09:28;;;;;;;6.47;2.35;;;18.10;53.90;;;;;;5091481;28;20227;-68
2022/04/30 08:11:59;;;;;;;3.70;2.13;;;18.10;53.30;;;;;;5091292;28;20178;-68
2022/04/30 08:14:25;;;;;;;2.85;1.83;;;18.10;53.40;;;;;;5088427;28;20269;-68
2022/04/30 08:16:50;;;;;;;2.70;1.98;;;18.20;53.50;;;;;;5091065;28;20190;-68
2022/04/30 08:19:16;;;;;;;3.80;2.17;;;18.20;54.00;;;;;;5091646;28;20161;-68
2022/04/30 08:21:42;;;;;;;3.20;1.90;;;18.20;53.40;;;;;;5090632;28;20221;-68
2022/04/30 08:24:08;;;;;;;3.17;1.73;;;18.20;53.50;;;;;;5091331;28;20251;-68
2022/04/30 08:26:37;;;;;;;3.90;2.15;;;18.20;53.50;;;;;;5090702;28;20178;-67
2022/04/30 08:29:03;;;;;;;4.30;1.80;;;18.10;53.60;;;;;;5091514;28;20235;-68
2022/04/30 08:31:28;;;;;;;3.25;2.10;;;18.10;53.70;;;;;;5090527;28;20177;-67
2022/04/30 08:33:54;;;;;;;6.97;2.33;;;18.00;53.70;;;;;;5090394;28;20178;-69
2022/04/30 08:36:19;;;;;;;4.85;2.08;;;18.00;53.80;;;;;;5091205;28;20170;-68
2022/04/30 08:38:45;;;;;;;1.85;1.70;;;18.00;53.80;;;;;;5091005;28;20193;-68
2022/04/30 08:41:10;;;;;;;4.88;2.28;;;18.00;53.80;;;;;;5090100;28;20174;-69
2022/04/30 08:43:37;;;;;;;5.03;2.00;;;17.90;53.90;;;;;;5091241;28;20162;-69
2022/04/30 08:46:03;;;;;;;2.92;2.13;;;18.00;54.00;;;;;;5090042;28;20170;-69
2022/04/30 08:48:29;;;;;;;2.80;1.83;;;18.00;53.90;;;;;;5090520;28;20215;-70
2022/04/30 08:50:54;;;;;;;4.32;2.13;;;17.90;54.00;;;;;;5089860;28;20555;-69
2022/04/30 08:53:20;;;;;;;4.50;1.90;;;17.90;54.00;;;;;;5091336;28;20228;-69
2022/04/30 08:55:45;;;;;;;2.67;2.03;;;17.90;54.10;;;;;;5089931;28;20277;-70
2022/04/30 08:58:11;;;;;;;5.72;1.92;;;17.90;54.00;;;;;;5090525;28;20563;-70
2022/04/30 09:00:41;;;;;;;2.28;1.80;;;17.90;54.10;;;;;;5090953;28;20188;-69
2022/04/30 09:03:07;;;;;;;2.28;2.00;;;17.90;54.00;;;;;;5090670;28;20227;-70
2022/04/30 09:05:36;;;;;;;5.00;2.13;;;17.90;54.40;;;;;;5091495;28;20223;-68
2022/04/30 09:08:02;;;;;;;3.15;1.92;;;17.90;54.50;;;;;;5091394;28;20181;-70
2022/04/30 09:10:29;;;;;;;3.30;1.77;;;18.00;54.10;;;;;;5091072;28;20174;-72
2022/04/30 09:13:03;;;;;;;6.28;2.25;;;18.00;54.30;;;;;;5091269;28;20181;-75
2022/04/30 09:15:30;;;;;;;3.40;1.88;;;18.00;53.90;;;;;;5091654;28;20522;-75
2022/04/30 09:17:56;;;;;;;4.45;2.00;;;18.10;53.80;;;;;;5090452;28;20663;-75
2022/04/30 09:20:22;;;;;;;3.78;1.90;;;18.10;53.80;;;;;;5091188;28;20182;-74
2022/04/30 09:22:47;;;;;;;3.05;1.83;;;18.00;53.90;;;;;;5090467;28;20732;-76
2022/04/30 09:25:13;;;;;;;4.38;1.98;;;18.00;53.90;;;;;;5091741;28;20246;-71
2022/04/30 09:27:46;;;;;;;3.35;2.00;;;17.90;53.70;;;;;;5091019;28;20177;-71
2022/04/30 09:30:17;;;;;;;10.50;2.55;;;17.90;53.50;;;;;;5090564;28;20213;-73
2022/04/30 09:32:42;;;;;;;4.20;2.40;;;17.80;53.40;;;;;;5091059;28;20178;-69
2022/04/30 09:38:04;;;;;;;4.38;2.22;;;17.80;53.70;;;;;;5090391;28;20254;-69
2022/04/30 09:40:30;;;;;;;2.55;2.33;;;17.80;53.70;;;;;;5091351;28;20269;-68
2022/04/30 09:42:56;;;;;;;6.07;2.30;;;17.80;53.70;;;;;;5091355;28;20201;-69
2022/04/30 09:45:29;;;;;;;5.72;2.50;;;17.90;53.80;;;;;;5094138;28;20186;-69
2022/04/30 09:47:55;;;;;;;4.03;2.83;;;17.90;53.90;;;;;;5094705;28;20705;-69
2022/04/30 09:55:52;;;;;;;3.55;2.47;;;17.90;53.90;;;;;;5094432;28;20173;-69
2022/04/30 09:58:21;;;;;;;4.60;2.13;;;17.90;53.90;;;;;;5093783;28;20256;-69
2022/04/30 10:00:46;;;;;;;4.97;2.28;;;17.90;53.90;;;;;;5094555;28;20174;-73
2022/04/30 10:03:12;;;;;;;4.15;2.05;;;17.90;54.00;;;;;;5093462;28;20220;-72
2022/04/30 10:05:40;;;;;;;3.22;2.22;;;17.90;54.00;;;;;;5092310;28;20255;-74
2022/04/30 10:08:06;;;;;;;5.47;2.35;;;17.90;53.90;;;;;;5093233;28;20181;-74
2022/04/30 10:10:42;;;;;;;3.97;2.33;;;17.90;53.90;;;;;;5094414;28;20177;-71
2022/04/30 10:13:33;;;;;;;5.40;2.50;;;17.90;53.80;;;;;;5091977;28;20559;-72
2022/04/30 10:15:58;;;;;;;3.17;1.88;;;17.90;53.80;;;;;;5094118;28;20493;-73
2022/04/30 10:18:42;;;;;;;2.38;2.17;;;17.90;53.80;;;;;;5093186;28;20175;-72
2022/04/30 10:21:18;;;;;;;5.88;2.20;;;17.90;53.80;;;;;;5093801;28;20230;-72
2022/04/30 10:23:46;;;;;;;3.78;2.03;;;17.80;53.80;;;;;;5094157;28;20264;-71
2022/04/30 10:26:11;;;;;;;3.40;2.40;;;17.80;53.90;;;;;;5092426;28;20268;-72
2022/04/30 10:28:37;;;;;;;4.10;2.47;;;17.80;53.90;;;;;;5094089;28;20241;-73
2022/04/30 10:31:09;;;;;;;3.00;2.30;;;17.70;53.90;;;;;;5094148;28;20291;-73
2022/04/30 10:33:34;;;;;;;5.45;2.20;;;17.70;53.90;;;;;;5093443;28;20169;-72
2022/04/30 10:36:07;;;;;;;4.97;2.35;;;17.70;54.00;;;;;;5094023;28;20183;-71
2022/04/30 10:38:32;;;;;;;3.67;2.00;;;17.70;54.00;;;;;;5094032;28;20197;-73
2022/04/30 10:40:59;;;;;;;3.90;2.50;;;17.60;53.90;;;;;;5092786;28;20174;-74
2022/04/30 10:43:37;;;;;;;2.35;1.98;;;17.60;53.90;;;;;;5093678;28;20316;-73
2022/04/30 10:46:25;;;;;;;2.97;2.15;;;17.60;53.90;;;;;;5093916;28;20196;-75
2022/04/30 10:48:51;;;;;;;4.38;2.60;;;17.60;53.80;;;;;;5092793;28;20178;-72
2022/04/30 10:51:40;;;;;;;3.70;2.63;;;17.60;53.80;;;;;;5093491;28;20181;-70
2022/04/30 10:54:13;;;;;;;5.05;2.45;;;17.60;53.80;;;;;;5092154;28;20226;-71
2022/04/30 10:56:39;;;;;;;5.07;2.10;;;17.60;53.80;;;;;;5092803;28;20170;-71
2022/04/30 10:59:05;;;;;;;5.55;2.65;;;17.60;53.80;;;;;;5093282;28;20320;-73
2022/04/30 11:01:30;;;;;;;6.38;2.50;;;17.60;53.90;;;;;;5092571;28;20379;-72
2022/04/30 11:03:55;;;;;;;3.80;2.20;;;17.60;53.90;;;;;;5093015;28;20210;-73
2022/04/30 11:06:23;;;;;;;3.47;2.55;;;17.60;53.90;;;;;;5093310;28;20169;-73
2022/04/30 11:09:03;;;;;;;6.13;2.30;;;17.60;53.90;;;;;;5092326;28;20648;-70
2022/04/30 11:11:29;;;;;;;4.75;2.70;;;17.60;54.10;;;;;;5093382;28;20232;-71
2022/04/30 11:14:06;;;;;;;4.10;2.33;;;17.60;53.90;;;;;;5092979;28;20178;-72
2022/04/30 11:16:35;;;;;;;4.15;2.38;;;17.60;54.00;;;;;;5092370;28;20262;-73
2022/04/30 11:19:07;;;;;;;6.53;2.45;;;17.60;54.00;;;;;;5093170;28;20269;-72
2022/04/30 11:21:40;;;;;;;5.53;2.33;;;17.60;54.00;;;;;;5093181;28;20284;-72
2022/04/30 11:24:06;;;;;;;5.47;2.55;;;17.60;54.00;;;;;;5092057;28;20711;-73
2022/04/30 11:26:39;;;;;;;8.07;2.67;;;17.60;54.00;;;;;;5092882;28;20694;-73
2022/04/30 11:29:11;;;;;;;2.65;2.20;;;17.60;54.00;;;;;;5092890;28;20250;-72
2022/04/30 11:31:37;;;;;;;3.42;2.42;;;17.60;54.10;;;;;;5091714;28;20566;-73
2022/04/30 11:34:09;;;;;;;4.35;2.22;;;17.60;54.10;;;;;;5092738;28;20280;-72
2022/04/30 11:36:42;;;;;;;4.55;2.55;;;17.60;54.10;;;;;;5091983;28;20235;-73
2022/04/30 11:39:09;;;;;;;2.95;2.17;;;17.70;54.10;;;;;;5092851;28;20257;-73
2022/04/30 11:41:41;;;;;;;4.45;2.75;;;17.60;54.00;;;;;;5092287;28;20265;-71
2022/04/30 11:44:13;;;;;;;4.68;2.67;;;17.70;54.00;;;;;;5091762;28;20280;-71
2022/04/30 11:46:42;;;;;;;6.75;2.70;;;17.70;54.00;;;;;;5092550;28;20227;-72
2022/04/30 11:49:09;;;;;;;6.55;2.58;;;17.70;54.00;;;;;;5092584;28;20250;-74
2022/04/30 11:51:34;;;;;;;3.05;2.28;;;17.70;54.00;;;;;;5091834;28;20294;-76
2022/04/30 11:54:02;;;;;;;6.88;2.75;;;17.70;54.00;;;;;;5091343;28;20280;-67
2022/04/30 11:56:27;;;;;;;8.40;2.75;;;17.70;54.00;;;;;;5091101;28;20190;-72
2022/04/30 11:58:53;;;;;;;4.90;2.35;;;17.70;53.90;;;;;;5089803;28;20587;-73
2022/04/30 12:01:28;;;;;;;4.38;2.28;;;17.80;53.90;;;;;;5092192;28;20181;-70
2022/04/30 12:04:05;;;;;;;5.68;2.30;;;17.80;53.90;;;;;;5092129;28;20247;-70
2022/04/30 12:06:30;;;;;;;6.00;2.67;;;17.80;53.80;;;;;;5091554;28;20205;-66
2022/04/30 12:08:56;;;;;;;5.22;2.58;;;17.80;54.00;;;;;;5092040;28;20297;-67
2022/04/30 12:11:22;;;;;;;5.13;2.30;;;17.90;53.90;;;;;;5092386;28;20199;-70
2022/04/30 12:14:03;;;;;;;4.03;2.35;;;17.90;53.80;;;;;;5091197;28;20174;-68
2022/04/30 12:16:36;;;;;;;6.65;2.42;;;17.90;53.70;;;;;;5092136;28;20193;-69
2022/04/30 12:24:46;;;;;;;4.78;2.17;;;18.00;53.60;;;;;;5092470;28;20564;-68
2022/04/30 12:27:21;;;;;;;3.03;2.10;;;18.10;53.60;;;;;;5091436;28;20177;-69
2022/04/30 12:29:47;;;;;;;4.88;2.60;;;18.10;53.60;;;;;;5091555;28;20177;-68
2022/04/30 12:32:17;;;;;;;5.68;2.45;;;18.10;53.50;;;;;;5091862;28;20176;-68
2022/04/30 12:34:42;;;;;;;5.07;2.72;;;18.10;53.50;;;;;;5091120;28;20189;-74
2022/04/30 12:37:08;;;;;;;4.30;2.42;;;18.10;53.30;;;;;;5091969;28;20525;-74
2022/04/30 12:39:33;;;;;;;3.33;2.38;;;18.10;53.40;;;;;;5090371;28;20173;-74
2022/04/30 12:41:59;;;;;;;3.00;2.47;;;18.00;53.40;;;;;;5090533;28;20237;-74
2022/04/30 12:44:26;;;;;;;2.67;2.47;;;18.00;53.50;;;;;;5090943;28;20248;-74
2022/04/30 12:46:51;;;;;;;3.05;2.25;;;18.00;53.40;;;;;;5091075;28;20184;-73
2022/04/30 12:49:19;;;;;;;5.78;2.50;;;18.00;53.50;;;;;;5091825;28;20532;-73
2022/04/30 12:51:46;;;;;;;4.78;2.25;;;18.00;53.40;;;;;;5091654;28;20177;-73
2022/04/30 12:54:13;;;;;;;3.05;2.40;;;17.90;53.40;;;;;;5091371;28;20170;-73
2022/04/30 12:56:43;;;;;;;3.53;2.00;;;17.90;53.40;;;;;;5091105;28;20180;-76
2022/04/30 12:59:09;;;;;;;2.53;2.00;;;17.90;53.40;;;;;;5091407;28;20282;-76
2022/04/30 13:01:35;;;;;;;4.22;2.60;;;17.90;53.40;;;;;;5090826;28;20237;-76
2022/04/30 13:04:01;;;;;;;4.60;2.28;;;17.90;53.40;;;;;;5091751;28;20177;-74
2022/04/30 13:06:27;;;;;;;4.03;2.17;;;17.90;53.40;;;;;;5091645;28;20178;-74
2022/04/30 13:14:34;;;;;;;2.80;2.13;;;17.90;53.60;;;;;;5074733;28;20235;-73
2022/04/30 13:17:00;;;;;;;3.95;2.28;;;17.80;53.60;;;;;;5090943;28;20181;-73
2022/04/30 13:19:26;;;;;;;2.50;2.30;;;17.80;53.60;;;;;;5094532;28;20649;-73
2022/04/30 13:21:52;;;;;;;2.60;2.17;;;17.70;53.60;;;;;;5094480;28;20194;-73
2022/04/30 13:24:18;;;;;;;6.93;2.33;;;17.80;53.70;;;;;;5095577;28;20574;-73
2022/04/30 13:26:43;;;;;;;2.20;2.00;;;17.80;53.70;;;;;;5095380;28;20715;-73
2022/04/30 13:29:10;;;;;;;2.30;2.10;;;17.70;53.70;;;;;;5094669;28;20173;-73
2022/04/30 13:31:37;;;;;;;3.25;2.28;;;17.70;53.70;;;;;;5094899;28;20201;-75
2022/04/30 13:34:03;;;;;;;2.00;1.80;;;17.70;53.70;;;;;;5095100;28;20279;-73
2022/04/30 13:36:28;;;;;;;2.05;1.85;;;17.70;53.70;;;;;;5094258;28;20628;-74
2022/04/30 13:38:54;;;;;;;3.88;2.00;;;17.70;53.70;;;;;;5094687;28;20467;-75